Time;durP1;ratioP1;P1;durP2;ratioP2;P2;SDS_P1;SDS_P2;PMS_P1;PMS_P2;Temp;Humidity;BMP_temperature;BMP_pressure;BME280_temperature;BME280_humidity;BME280_pressure;Samples;Min_cycle;Max_cycle;Signal;HPM_P1;HPM_P2
2023/08/08 00:00:48;;;;;;;4.50;0.90;;;19.00;99.90;;;19.34;68.17;94834.13;5075902;28;20470;-59
2023/08/08 00:03:15;;;;;;;2.63;0.70;;;18.90;99.90;;;19.32;67.58;94834.31;5075140;28;20533;-58
2023/08/08 00:05:42;;;;;;;0.97;0.87;;;18.90;99.90;;;19.31;67.57;94842.50;5077904;28;20474;-60
2023/08/08 00:08:09;;;;;;;2.70;0.80;;;18.90;99.90;;;19.30;67.65;94840.84;5076152;28;20534;-62
2023/08/08 00:10:36;;;;;;;0.90;0.80;;;18.80;99.90;;;19.28;67.51;94851.72;5077370;28;20548;-60
2023/08/08 00:13:04;;;;;;;1.10;1.00;;;18.90;99.90;;;19.26;67.60;94839.59;5078288;28;20446;-59
2023/08/08 00:15:33;;;;;;;1.00;0.90;;;18.80;99.90;;;19.23;66.51;94840.00;5077613;28;20500;-62
2023/08/08 00:18:00;;;;;;;1.00;0.90;;;18.80;99.90;;;19.19;66.69;94834.19;5074081;28;20549;-58
2023/08/08 00:20:27;;;;;;;1.70;1.00;;;18.70;99.90;;;19.16;66.81;94839.94;5078097;28;20470;-62
2023/08/08 00:22:55;;;;;;;2.03;0.90;;;18.70;99.90;;;19.13;66.66;94834.97;5073675;28;20458;-61
2023/08/08 00:25:22;;;;;;;0.80;0.67;;;18.70;99.90;;;19.09;65.89;94833.75;5076275;28;21087;-58
2023/08/08 00:27:50;;;;;;;1.40;1.30;;;18.70;99.90;;;19.05;65.75;94846.59;5074827;28;20880;-60
2023/08/08 00:30:18;;;;;;;0.90;0.70;;;18.60;99.90;;;19.03;65.46;94855.84;5074134;28;21073;-61
2023/08/08 00:32:46;;;;;;;1.20;0.70;;;18.60;99.90;;;18.98;65.57;94851.09;5082382;28;20466;-61
2023/08/08 00:35:13;;;;;;;1.20;1.10;;;18.60;99.90;;;18.96;66.10;94850.44;5076250;28;20454;-62
2023/08/08 00:37:41;;;;;;;1.40;0.90;;;18.50;99.90;;;18.93;65.92;94845.47;5076572;28;20536;-57
2023/08/08 00:40:09;;;;;;;1.20;0.80;;;18.50;99.90;;;18.90;65.62;94838.72;5074374;28;20462;-56
2023/08/08 00:42:36;;;;;;;1.97;1.10;;;18.50;99.90;;;18.89;65.78;94844.22;5076012;28;20895;-58
2023/08/08 00:45:04;;;;;;;1.20;0.70;;;18.40;99.90;;;18.86;65.06;94849.94;5075783;28;20520;-61
2023/08/08 00:47:32;;;;;;;1.20;0.80;;;18.50;99.90;;;18.85;65.73;94858.94;5078835;28;20928;-60
2023/08/08 00:50:01;;;;;;;0.80;0.70;;;18.40;99.90;;;18.82;65.10;94860.13;5079468;28;20539;-61
2023/08/08 00:52:28;;;;;;;3.23;1.20;;;18.40;99.90;;;18.81;65.76;94858.50;5073365;28;20795;-57
2023/08/08 00:54:56;;;;;;;1.10;0.80;;;18.40;99.90;;;18.79;65.07;94857.84;5080194;28;20499;-60
2023/08/08 00:57:23;;;;;;;1.00;0.80;;;18.30;99.90;;;18.77;65.15;94859.88;5072115;28;20478;-61
2023/08/08 00:59:50;;;;;;;0.83;0.70;;;18.30;99.90;;;18.74;65.14;94871.72;5077440;28;20573;-61
2023/08/08 01:02:17;;;;;;;1.17;1.07;;;18.30;99.90;;;18.72;65.24;94875.63;5076165;28;20461;-61
2023/08/08 01:04:45;;;;;;;9.50;0.70;;;18.30;99.90;;;18.68;65.23;94869.00;5076323;28;20970;-61
2023/08/08 01:07:22;;;;;;;0.87;0.70;;;18.30;99.90;;;18.66;65.25;94879.84;5078316;28;20466;-61
2023/08/08 01:09:54;;;;;;;1.00;0.90;;;18.20;99.90;;;18.63;65.81;94883.72;5078482;28;21001;-61
2023/08/08 01:12:21;;;;;;;1.00;0.90;;;18.20;99.90;;;18.61;65.38;94884.94;5079999;28;20478;-60
2023/08/08 01:14:48;;;;;;;1.40;1.00;;;18.20;99.90;;;18.58;65.80;94880.81;5081246;28;20523;-60
2023/08/08 01:17:15;;;;;;;1.03;0.70;;;18.10;99.90;;;18.57;65.98;94891.66;5078669;28;20514;-60
2023/08/08 01:19:42;;;;;;;1.10;1.00;;;18.10;99.90;;;18.56;65.56;94896.16;5080039;28;20880;-61
2023/08/08 01:22:17;;;;;;;1.10;1.00;;;18.10;99.90;;;18.55;66.20;94891.84;5080879;28;20465;-58
2023/08/08 01:24:46;;;;;;;4.13;0.93;;;18.10;99.90;;;18.52;65.73;94888.72;5080215;28;20456;-60
2023/08/08 01:27:13;;;;;;;19.57;1.57;;;18.10;99.90;;;18.49;65.30;94892.59;5081682;28;20477;-58
2023/08/08 01:29:42;;;;;;;0.97;0.83;;;18.10;99.90;;;18.48;65.41;94890.94;5077003;28;20493;-58
2023/08/08 01:32:10;;;;;;;1.17;1.00;;;18.10;99.90;;;18.47;65.29;94899.94;5081045;28;20482;-61
2023/08/08 01:34:37;;;;;;;1.97;1.20;;;18.10;99.90;;;18.46;65.56;94901.78;5077682;28;20925;-56
2023/08/08 01:37:10;;;;;;;0.90;0.70;;;18.10;99.90;;;18.46;65.46;94914.28;5079589;28;20505;-57
2023/08/08 01:39:37;;;;;;;1.27;0.80;;;18.10;99.90;;;18.46;65.56;94914.28;5080402;28;20880;-56
2023/08/08 01:42:07;;;;;;;1.00;0.90;;;18.00;99.90;;;18.42;65.08;94913.00;5078522;28;20467;-58
2023/08/08 01:44:34;;;;;;;1.00;0.90;;;18.00;99.90;;;18.38;65.72;94917.06;5080217;28;20451;-57
2023/08/08 01:47:02;;;;;;;1.57;0.90;;;18.00;99.90;;;18.36;66.15;94914.56;5077924;28;20571;-57
2023/08/08 01:49:29;;;;;;;0.80;0.70;;;18.00;99.90;;;18.34;65.75;94921.09;5082163;28;20944;-60
2023/08/08 01:51:56;;;;;;;1.50;1.03;;;17.90;99.90;;;18.30;66.21;94920.66;5077058;28;20497;-62
2023/08/08 01:54:24;;;;;;;0.90;0.80;;;17.90;99.90;;;18.27;66.23;94921.84;5082381;28;20450;-57
2023/08/08 01:56:51;;;;;;;1.30;1.07;;;17.90;99.90;;;18.23;66.40;94915.25;5075995;28;20474;-57
2023/08/08 01:59:19;;;;;;;4.60;1.20;;;17.80;99.90;;;18.22;66.54;94918.09;5080306;28;20465;-60
2023/08/08 02:01:47;;;;;;;10.53;1.03;;;17.80;99.90;;;18.20;66.12;94928.94;5073981;28;20478;-57
2023/08/08 02:04:14;;;;;;;1.53;1.10;;;17.80;99.90;;;18.19;66.03;94929.94;5078667;28;20453;-58
2023/08/08 02:06:41;;;;;;;1.67;1.20;;;17.80;99.90;;;18.20;66.68;94936.91;5079046;28;20466;-60
2023/08/08 02:09:08;;;;;;;1.00;0.90;;;17.80;99.90;;;18.20;66.61;94928.94;5080112;28;20970;-58
2023/08/08 02:11:36;;;;;;;1.10;1.00;;;17.80;99.90;;;18.20;66.89;94930.75;5078248;28;20482;-58
2023/08/08 02:14:03;;;;;;;3.33;1.20;;;17.80;99.90;;;18.20;66.52;94928.09;5076663;28;20825;-60
2023/08/08 02:16:31;;;;;;;1.87;0.90;;;17.80;99.90;;;18.19;66.88;94927.28;5077126;28;20518;-60
2023/08/08 02:18:59;;;;;;;1.57;1.40;;;17.80;99.90;;;18.19;66.60;94940.59;5075556;28;20446;-61
2023/08/08 02:21:26;;;;;;;2.40;1.10;;;17.80;99.90;;;18.18;66.48;94944.25;5074769;28;20990;-57
2023/08/08 02:23:53;;;;;;;1.23;1.13;;;17.80;99.90;;;18.22;67.15;94950.03;5082888;28;20511;-58
2023/08/08 02:26:21;;;;;;;1.30;1.20;;;17.80;99.90;;;18.19;67.04;94951.22;5074496;28;20850;-61
2023/08/08 02:28:48;;;;;;;4.30;1.20;;;17.80;99.90;;;18.16;66.69;94942.81;5077986;28;20973;-57
2023/08/08 02:31:20;;;;;;;1.20;1.00;;;17.80;99.90;;;18.18;66.69;94956.75;5083581;28;20802;-57
2023/08/08 02:33:50;;;;;;;2.17;1.10;;;17.80;99.90;;;18.16;66.43;94954.25;5077727;28;20459;-57
2023/08/08 02:36:17;;;;;;;1.83;1.67;;;17.80;99.90;;;18.14;66.76;94955.44;5071600;28;20561;-60
2023/08/08 02:38:44;;;;;;;1.50;1.00;;;17.80;99.90;;;18.14;67.21;94952.78;5076818;28;20521;-58
2023/08/08 02:41:12;;;;;;;1.87;1.63;;;17.70;99.90;;;18.12;66.91;94950.31;5081330;28;20478;-58
2023/08/08 02:43:40;;;;;;;1.30;1.20;;;17.70;99.90;;;18.12;67.25;94944.16;5076498;28;20462;-60
2023/08/08 02:46:07;;;;;;;1.10;1.00;;;17.70;99.90;;;18.12;67.60;94952.97;5080368;28;20672;-56
2023/08/08 02:48:34;;;;;;;1.03;0.93;;;17.70;99.90;;;18.13;67.77;94957.28;5074948;28;20451;-60
2023/08/08 02:51:03;;;;;;;1.77;1.67;;;17.70;99.90;;;18.13;67.42;94959.16;5078757;28;20525;-57
2023/08/08 02:53:31;;;;;;;1.97;1.07;;;17.70;99.90;;;18.13;67.13;94975.94;5079061;28;20447;-58
2023/08/08 02:55:58;;;;;;;6.10;1.17;;;17.70;99.90;;;18.15;67.22;94976.56;5077859;28;21029;-58
2023/08/08 02:58:25;;;;;;;1.60;1.50;;;17.70;99.90;;;18.16;67.12;94980.06;5079035;28;20449;-57
2023/08/08 03:00:53;;;;;;;1.50;1.40;;;17.70;99.90;;;18.17;67.63;94981.69;5077064;28;20466;-57
2023/08/08 03:03:20;;;;;;;1.20;1.10;;;17.80;99.90;;;18.17;67.33;94979.88;5075458;28;20965;-58
2023/08/08 03:05:47;;;;;;;3.33;1.57;;;17.80;99.90;;;18.18;67.14;94976.19;5078750;28;20970;-59
2023/08/08 03:08:16;;;;;;;2.10;1.77;;;17.80;99.90;;;18.19;67.32;94982.38;5076312;28;20454;-61
2023/08/08 03:10:43;;;;;;;1.70;1.60;;;17.80;99.90;;;18.18;67.38;94978.03;5080681;28;20504;-61
2023/08/08 03:13:10;;;;;;;2.20;1.40;;;17.80;99.90;;;18.18;67.54;94984.19;5075498;28;20512;-57
2023/08/08 03:15:38;;;;;;;1.60;1.50;;;17.80;99.90;;;18.16;67.67;94985.41;5080055;28;20475;-57
2023/08/08 03:18:06;;;;;;;1.83;1.73;;;17.80;99.90;;;18.14;66.90;94990.91;5074532;28;21157;-56
2023/08/08 03:20:33;;;;;;;2.13;1.60;;;17.80;99.90;;;18.15;67.14;94997.84;5077360;28;20478;-57
2023/08/08 03:23:01;;;;;;;1.60;1.50;;;17.80;99.90;;;18.15;67.02;94989.88;5078946;28;20520;-58
2023/08/08 03:25:29;;;;;;;1.80;1.70;;;17.80;99.90;;;18.16;67.25;94986.22;5076812;28;20531;-61
2023/08/08 03:27:57;;;;;;;1.60;1.50;;;17.80;99.90;;;18.16;67.46;94982.72;5078244;28;20454;-60
2023/08/08 03:30:24;;;;;;;1.50;1.40;;;17.80;99.90;;;18.17;67.10;94990.53;5076026;28;20497;-62
2023/08/08 03:32:51;;;;;;;1.87;1.77;;;17.80;99.90;;;18.17;67.52;94993.19;5077647;28;20553;-57
2023/08/08 03:35:19;;;;;;;1.80;1.70;;;17.80;99.90;;;18.17;67.00;94984.38;5078383;28;20456;-57
2023/08/08 03:37:46;;;;;;;1.87;1.77;;;17.70;99.90;;;18.16;67.29;94983.53;5078226;28;20544;-60
2023/08/08 03:40:14;;;;;;;9.13;1.90;;;17.80;99.90;;;18.16;67.27;94990.72;5077966;28;20450;-62
2023/08/08 03:42:43;;;;;;;1.80;1.70;;;17.80;99.90;;;18.15;67.02;95003.19;5076051;28;20454;-61
2023/08/08 03:45:11;;;;;;;2.40;2.20;;;17.80;99.90;;;18.15;67.51;94997.84;5076985;28;20850;-58
2023/08/08 03:47:39;;;;;;;8.70;1.50;;;17.80;99.90;;;18.17;67.42;94995.00;5075133;28;20812;-61
2023/08/08 03:50:08;;;;;;;1.70;1.60;;;17.80;99.90;;;18.24;67.15;94994.09;5078551;28;20485;-61
2023/08/08 03:52:37;;;;;;;1.80;1.70;;;17.80;99.90;;;18.31;67.24;94993.34;5080240;28;20461;-60
2023/08/08 03:55:05;;;;;;;2.23;2.03;;;17.90;99.90;;;18.36;67.42;94994.47;5077260;28;20454;-60
2023/08/08 03:57:32;;;;;;;3.07;2.77;;;17.90;99.90;;;18.41;66.79;95000.06;5074850;28;20459;-60
2023/08/08 04:00:02;;;;;;;2.13;2.03;;;18.00;99.90;;;18.47;66.54;95001.16;5077845;28;20455;-64
2023/08/08 04:02:29;;;;;;;3.90;2.07;;;18.00;99.90;;;18.50;66.47;95007.94;5079111;28;20490;-60
2023/08/08 04:04:56;;;;;;;2.50;2.27;;;18.10;99.90;;;18.51;66.56;95013.06;5078460;28;20835;-60
2023/08/08 04:07:23;;;;;;;2.63;2.43;;;18.10;99.90;;;18.56;66.49;95023.19;5080750;28;20474;-58
2023/08/08 04:09:51;;;;;;;2.40;1.80;;;18.10;99.90;;;18.59;65.73;95028.97;5078406;28;20461;-60
2023/08/08 04:12:18;;;;;;;2.90;2.23;;;18.10;99.90;;;18.63;66.32;95029.44;5077048;28;20471;-61
2023/08/08 04:14:45;;;;;;;3.30;3.00;;;18.20;99.90;;;18.66;66.12;95036.22;5074414;28;20462;-60
2023/08/08 04:17:14;;;;;;;10.27;2.60;;;18.20;99.90;;;18.67;65.96;95024.53;5074411;28;20559;-58
2023/08/08 04:19:41;;;;;;;2.77;2.57;;;18.20;99.90;;;18.70;65.89;95032.16;5073561;28;20539;-58
2023/08/08 04:22:08;;;;;;;3.20;2.90;;;18.30;99.90;;;18.71;65.38;95031.97;5076343;28;20495;-58
2023/08/08 04:24:35;;;;;;;3.63;2.20;;;18.30;99.90;;;18.73;64.99;95032.63;5072041;28;20453;-58
2023/08/08 04:27:03;;;;;;;11.23;3.17;;;18.30;99.90;;;18.75;65.51;95037.78;5080105;28;20483;-59
2023/08/08 04:29:31;;;;;;;2.70;2.60;;;18.30;99.90;;;18.79;65.17;95047.03;5079061;28;20520;-61
2023/08/08 04:31:58;;;;;;;2.80;2.40;;;18.30;99.90;;;18.79;65.39;95052.34;5077808;28;20510;-61
2023/08/08 04:34:27;;;;;;;5.80;2.80;;;18.30;99.90;;;18.79;65.06;95042.56;5078971;28;21328;-58
2023/08/08 04:36:54;;;;;;;2.87;2.67;;;18.40;99.90;;;18.79;65.17;95036.38;5077007;28;20577;-57
2023/08/08 04:39:22;;;;;;;5.57;2.13;;;18.30;99.90;;;18.78;64.59;95019.56;5073711;28;20962;-56
2023/08/08 04:41:49;;;;;;;10.00;2.50;;;18.40;99.90;;;18.78;64.45;95016.09;5078992;28;20474;-63
2023/08/08 04:44:16;;;;;;;2.53;2.17;;;18.40;99.90;;;18.77;64.47;95017.91;5076108;28;20458;-62
2023/08/08 04:46:44;;;;;;;12.70;2.77;;;18.40;99.90;;;18.78;64.68;95029.41;5080754;28;20474;-60
2023/08/08 04:49:11;;;;;;;2.63;2.43;;;18.40;99.90;;;18.78;65.19;95037.41;5071729;28;20951;-57
2023/08/08 04:51:40;;;;;;;2.07;1.90;;;18.40;99.90;;;18.78;64.50;95050.72;5082477;28;20495;-58
2023/08/08 04:54:07;;;;;;;3.00;2.20;;;18.40;99.90;;;18.78;64.64;95051.53;5079465;28;20612;-57
2023/08/08 04:56:34;;;;;;;2.30;2.20;;;18.40;99.90;;;18.79;65.01;95061.19;5078947;28;20497;-63
2023/08/08 04:59:01;;;;;;;3.40;2.30;;;18.40;99.90;;;18.80;64.85;95062.84;5076961;28;20459;-68
2023/08/08 05:01:29;;;;;;;3.67;3.27;;;18.40;99.90;;;18.83;64.48;95076.81;5077761;28;20489;-56
2023/08/08 05:03:56;;;;;;;2.50;2.40;;;18.40;99.90;;;18.85;64.33;95080.97;5075651;28;21427;-57
2023/08/08 05:06:23;;;;;;;3.50;2.33;;;18.40;99.90;;;18.88;64.72;95090.44;5079409;28;20467;-60
2023/08/08 05:08:52;;;;;;;1.90;1.80;;;18.40;99.90;;;18.91;64.58;95090.06;5077666;28;20453;-58
2023/08/08 05:11:20;;;;;;;2.27;2.17;;;18.50;99.90;;;18.92;64.19;95105.88;5078556;28;20501;-57
2023/08/08 05:13:47;;;;;;;3.63;2.27;;;18.50;99.90;;;18.96;64.59;95106.31;5076625;28;20931;-62
2023/08/08 05:16:14;;;;;;;5.37;3.20;;;18.50;99.90;;;19.01;64.49;95103.94;5078183;28;20950;-61
2023/08/08 05:18:44;;;;;;;2.67;2.47;;;18.60;99.90;;;19.06;64.38;95103.38;5080282;28;20508;-63
2023/08/08 05:21:11;;;;;;;2.20;2.10;;;18.60;99.90;;;19.10;63.69;95088.66;5077819;28;20465;-57
2023/08/08 05:23:38;;;;;;;1.90;1.80;;;18.70;99.90;;;19.17;63.35;95086.88;5078673;28;20451;-62
2023/08/08 05:26:07;;;;;;;8.10;2.30;;;18.70;99.90;;;19.19;62.92;95100.84;5077490;28;20481;-61
2023/08/08 05:28:34;;;;;;;2.80;2.40;;;18.80;99.80;;;19.21;62.94;95104.19;5081196;28;20523;-57
2023/08/08 05:31:01;;;;;;;2.37;2.00;;;18.80;99.80;;;19.22;62.79;95110.31;5079824;28;20538;-57
2023/08/08 05:33:28;;;;;;;6.43;1.67;;;18.80;99.30;;;19.23;63.04;95122.66;5078412;28;21484;-59
2023/08/08 05:35:55;;;;;;;1.87;1.77;;;18.80;99.50;;;19.30;63.16;95124.38;5080600;28;20469;-62
2023/08/08 05:38:23;;;;;;;3.20;2.00;;;18.90;99.90;;;19.45;62.65;95137.66;5081842;28;20453;-62
2023/08/08 05:40:51;;;;;;;2.27;2.17;;;19.00;99.60;;;19.55;62.43;95140.06;5079819;28;20523;-58
2023/08/08 05:43:21;;;;;;;2.13;2.03;;;19.10;99.20;;;19.62;61.72;95137.44;5078050;28;20472;-61
2023/08/08 05:45:48;;;;;;;2.40;2.23;;;19.10;98.90;;;19.71;62.34;95139.78;5079162;28;20485;-56
2023/08/08 05:48:16;;;;;;;2.20;2.10;;;19.20;99.20;;;19.87;62.33;95145.94;5079962;28;20534;-62
2023/08/08 05:50:43;;;;;;;2.80;2.20;;;19.30;99.10;;;20.04;62.21;95147.31;5077194;28;20559;-63
2023/08/08 05:53:10;;;;;;;1.53;1.43;;;19.50;99.10;;;20.24;61.20;95144.00;5083030;28;20484;-57
2023/08/08 05:55:37;;;;;;;2.23;2.13;;;19.70;98.60;;;20.39;60.73;95141.25;5078972;28;20574;-63
2023/08/08 05:58:05;;;;;;;2.80;2.50;;;19.80;98.30;;;20.46;59.58;95143.97;5078995;28;20462;-61
2023/08/08 06:00:34;;;;;;;5.10;1.83;;;19.90;97.40;;;20.46;59.29;95146.63;5080123;28;20846;-61
2023/08/08 06:03:01;;;;;;;2.70;2.50;;;19.90;96.90;;;20.41;59.73;95153.38;5076563;28;20460;-56
2023/08/08 06:05:28;;;;;;;3.27;3.00;;;19.90;97.20;;;20.40;60.17;95166.94;5079452;28;21270;-62
2023/08/08 06:07:56;;;;;;;3.77;2.20;;;19.90;97.40;;;20.38;59.89;95164.44;5078896;28;20450;-61
2023/08/08 06:10:25;;;;;;;2.47;2.27;;;19.90;97.30;;;20.36;59.76;95153.13;5078477;28;20474;-61
2023/08/08 06:12:52;;;;;;;4.80;2.20;;;19.90;97.00;;;20.43;60.17;95163.88;5080262;28;20450;-57
2023/08/08 06:15:19;;;;;;;4.53;2.63;;;20.00;97.50;;;20.58;59.69;95153.09;5078285;28;20457;-56
2023/08/08 06:17:48;;;;;;;3.37;2.40;;;20.00;97.40;;;20.73;59.48;95151.16;5079979;28;20466;-62
2023/08/08 06:20:15;;;;;;;4.37;1.97;;;20.20;97.20;;;20.93;59.44;95155.81;5080299;28;20473;-61
2023/08/08 06:22:43;;;;;;;2.50;2.40;;;20.30;97.20;;;21.10;58.94;95151.78;5081498;28;20462;-57
2023/08/08 06:25:10;;;;;;;2.33;2.13;;;20.50;96.80;;;21.27;58.71;95156.78;5077199;28;20942;-56
2023/08/08 06:27:38;;;;;;;2.37;2.20;;;20.70;97.00;;;21.45;58.26;95158.94;5081809;28;21038;-58
2023/08/08 06:30:08;;;;;;;2.37;2.27;;;20.80;96.20;;;21.64;58.12;95157.38;5075975;28;20462;-62
2023/08/08 06:32:35;;;;;;;2.43;2.27;;;21.10;96.10;;;21.77;57.52;95157.41;5077902;28;20490;-58
2023/08/08 06:35:04;;;;;;;10.57;2.97;;;21.20;95.50;;;21.81;56.67;95156.00;5079662;28;20455;-61
2023/08/08 06:37:32;;;;;;;2.23;2.07;;;21.30;94.50;;;21.89;56.28;95164.84;5077871;28;20495;-58
2023/08/08 06:39:59;;;;;;;4.03;1.47;;;21.30;94.00;;;21.99;55.74;95166.09;5080262;28;20450;-57
2023/08/08 06:42:27;;;;;;;2.90;1.90;;;21.40;93.00;;;22.10;54.74;95156.63;5078315;28;20977;-56
2023/08/08 06:44:54;;;;;;;1.80;1.63;;;21.60;92.80;;;22.19;54.15;95162.63;5079632;28;20446;-61
2023/08/08 06:47:22;;;;;;;1.90;1.80;;;21.60;91.60;;;22.25;54.19;95158.31;5077765;28;20535;-60
2023/08/08 06:49:49;;;;;;;2.90;1.20;;;21.70;91.70;;;22.36;53.68;95165.75;5075871;28;20534;-61
2023/08/08 06:52:17;;;;;;;6.60;1.70;;;21.80;91.20;;;22.51;51.96;95170.91;5077877;28;20501;-62
2023/08/08 06:54:45;;;;;;;2.03;1.60;;;21.90;88.40;;;22.67;52.29;95161.63;5077532;28;20462;-57
2023/08/08 06:57:12;;;;;;;1.77;1.67;;;22.10;89.70;;;22.83;51.18;95169.22;5080425;28;20474;-61
2023/08/08 06:59:39;;;;;;;1.60;1.50;;;22.20;86.20;;;22.99;50.56;95164.44;5076556;28;20446;-58
2023/08/08 07:02:06;;;;;;;1.60;1.50;;;22.40;85.80;;;23.10;50.61;95171.88;5076617;28;20609;-63
2023/08/08 07:04:34;;;;;;;1.93;1.60;;;22.50;84.00;;;23.22;49.85;95151.41;5073582;28;20453;-64
2023/08/08 07:07:01;;;;;;;2.23;1.57;;;22.60;84.40;;;23.34;49.37;95166.84;5077194;28;20481;-61
2023/08/08 07:09:30;;;;;;;1.90;1.70;;;22.70;82.60;;;23.45;48.05;95168.88;5079629;28;20676;-61
2023/08/08 07:11:57;;;;;;;1.70;1.60;;;22.80;78.90;;;23.55;48.86;95163.88;5076753;28;20504;-58
2023/08/08 07:14:24;;;;;;;3.03;1.67;;;23.00;79.70;;;23.69;47.74;95163.81;5074642;28;20520;-56
2023/08/08 07:16:53;;;;;;;1.90;1.80;;;23.10;79.80;;;23.81;47.24;95162.06;5075473;28;20466;-62
2023/08/08 07:19:21;;;;;;;3.63;2.40;;;23.20;77.50;;;23.90;45.99;95162.69;5076927;28;20947;-61
2023/08/08 07:21:48;;;;;;;4.20;1.40;;;23.30;75.40;;;23.92;47.70;95161.44;5074745;28;20546;-61
2023/08/08 07:24:15;;;;;;;1.73;1.30;;;23.40;76.90;;;23.97;47.83;95158.09;5080120;28;20458;-61
2023/08/08 07:26:44;;;;;;;2.27;1.40;;;23.40;76.90;;;24.04;47.48;95156.19;5077010;28;20479;-61
2023/08/08 07:29:11;;;;;;;2.60;1.10;;;23.50;76.20;;;24.13;46.59;95159.44;5078935;28;20453;-62
2023/08/08 07:31:38;;;;;;;2.93;1.03;;;23.60;74.90;;;24.24;45.83;95168.66;5077622;28;20596;-62
2023/08/08 07:34:05;;;;;;;3.20;1.27;;;23.60;74.50;;;24.36;44.85;95163.41;5077312;28;20469;-56
2023/08/08 07:36:33;;;;;;;1.63;1.10;;;23.80;71.80;;;24.40;44.54;95154.69;5077265;28;20957;-61
2023/08/08 07:39:00;;;;;;;6.83;1.20;;;23.80;70.70;;;24.48;45.27;95156.28;5078519;28;20450;-61
2023/08/08 07:41:27;;;;;;;5.53;1.90;;;23.90;72.80;;;24.62;45.31;95146.28;5076087;28;20497;-61
2023/08/08 07:43:56;;;;;;;1.10;1.00;;;24.00;72.00;;;24.70;44.74;95149.47;5080633;28;20450;-62
2023/08/08 07:46:24;;;;;;;1.40;1.00;;;24.10;71.00;;;24.75;44.40;95151.50;5076589;28;20465;-57
2023/08/08 07:48:51;;;;;;;3.63;1.10;;;24.10;70.20;;;24.87;44.03;95163.19;5074311;28;20462;-58
2023/08/08 07:51:18;;;;;;;1.43;0.97;;;24.30;70.70;;;25.03;44.09;95142.94;5072492;28;20683;-58
2023/08/08 07:53:46;;;;;;;1.57;1.20;;;24.40;70.00;;;25.21;43.88;95152.91;5076746;28;20446;-61
2023/08/08 07:56:13;;;;;;;10.63;1.40;;;24.50;69.90;;;25.36;43.52;95149.03;5074703;28;20986;-62
2023/08/08 07:58:40;;;;;;;1.47;1.37;;;24.70;69.10;;;25.45;43.14;95155.75;5076276;28;20884;-57
2023/08/08 08:01:09;;;;;;;1.20;1.10;;;24.80;68.70;;;25.44;41.93;95162.19;5073781;28;20905;-57
2023/08/08 08:03:36;;;;;;;1.00;0.90;;;24.90;66.20;;;25.49;42.97;95164.22;5074111;28;20488;-61
2023/08/08 08:06:04;;;;;;;1.00;0.90;;;24.90;67.60;;;25.59;42.40;95168.03;5078955;28;20473;-58
2023/08/08 08:08:31;;;;;;;0.83;0.73;;;25.00;67.10;;;25.65;42.33;95171.66;5078051;28;21005;-58
2023/08/08 08:10:59;;;;;;;1.47;1.33;;;25.10;66.00;;;25.81;42.22;95158.63;5076434;28;20465;-62
2023/08/08 08:13:26;;;;;;;1.20;1.10;;;25.20;66.30;;;26.02;42.02;95158.13;5080052;28;20555;-61
2023/08/08 08:15:54;;;;;;;1.03;0.93;;;25.40;65.50;;;26.29;42.01;95149.66;5076422;28;20600;-58
2023/08/08 08:18:22;;;;;;;1.30;1.20;;;25.60;66.10;;;26.60;41.53;95156.63;5076417;28;20446;-58
2023/08/08 08:20:50;;;;;;;1.37;1.27;;;25.90;65.30;;;26.90;39.99;95161.13;5076385;28;20469;-57
2023/08/08 08:23:17;;;;;;;1.87;1.27;;;26.20;63.70;;;27.19;40.41;95153.13;5076430;28;20446;-62
2023/08/08 08:25:45;;;;;;;2.80;1.60;;;26.50;63.60;;;27.43;38.28;95150.41;5076697;28;20533;-58
2023/08/08 08:28:12;;;;;;;4.17;1.43;;;26.70;59.40;;;27.40;39.41;95154.38;5076616;28;20458;-57
2023/08/08 08:30:39;;;;;;;1.80;1.33;;;26.80;59.80;;;27.25;39.07;95162.97;5076852;28;20470;-63
2023/08/08 08:33:07;;;;;;;6.40;1.90;;;26.70;60.20;;;27.08;39.77;95162.88;5075098;28;20574;-58
2023/08/08 08:35:36;;;;;;;7.23;1.70;;;26.60;59.90;;;27.02;39.51;95169.22;5076879;28;20505;-62
2023/08/08 08:38:04;;;;;;;1.90;1.70;;;26.50;60.50;;;27.14;39.60;95171.91;5076190;28;20446;-57
2023/08/08 08:40:31;;;;;;;1.73;1.63;;;26.60;60.60;;;27.28;39.71;95164.38;5078766;28;21188;-58
2023/08/08 08:42:59;;;;;;;1.77;1.67;;;26.70;61.10;;;27.34;38.90;95177.78;5073561;28;20450;-58
2023/08/08 08:45:26;;;;;;;1.73;1.63;;;26.70;59.00;;;27.25;37.58;95170.25;5078596;28;20465;-58
2023/08/08 08:47:53;;;;;;;1.57;1.47;;;26.70;58.10;;;27.23;38.75;95164.25;5073840;28;21031;-57
2023/08/08 08:50:21;;;;;;;1.77;1.30;;;26.70;59.30;;;27.24;37.86;95174.00;5074047;28;20456;-58
2023/08/08 08:52:49;;;;;;;2.80;1.30;;;26.70;57.90;;;27.13;38.69;95164.88;5076740;28;20489;-58
2023/08/08 08:55:17;;;;;;;2.03;1.90;;;26.60;58.80;;;27.04;38.91;95161.69;5080374;28;20487;-58
2023/08/08 08:57:45;;;;;;;1.70;1.60;;;26.50;59.20;;;26.94;38.59;95166.84;5075842;28;20442;-62
2023/08/08 09:00:15;;;;;;;3.43;1.60;;;26.40;58.90;;;26.80;39.49;95160.88;5075548;28;20548;-62
2023/08/08 09:02:43;;;;;;;2.30;1.47;;;26.30;59.50;;;26.72;39.66;95164.75;5073248;28;20568;-58
2023/08/08 09:05:10;;;;;;;1.80;1.60;;;26.20;59.50;;;26.64;39.36;95162.38;5080412;28;20807;-57
2023/08/08 09:07:38;;;;;;;2.80;1.73;;;26.10;59.30;;;26.47;39.05;95164.94;5073373;28;20453;-64
2023/08/08 09:10:08;;;;;;;1.77;1.67;;;25.90;59.10;;;26.31;39.35;95169.13;5080731;28;20449;-62
2023/08/08 09:12:36;;;;;;;1.70;1.53;;;25.80;59.10;;;26.27;38.51;95160.69;5071900;28;20488;-62
2023/08/08 09:15:05;;;;;;;2.23;1.20;;;25.70;58.50;;;26.14;38.60;95151.97;5075583;28;20462;-57
2023/08/08 09:17:33;;;;;;;1.60;1.50;;;25.60;58.50;;;26.10;38.32;95141.66;5077393;28;20465;-57
2023/08/08 09:20:00;;;;;;;1.47;1.37;;;25.60;58.30;;;26.04;39.49;95158.75;5077783;28;20465;-62
2023/08/08 09:22:28;;;;;;;1.33;1.23;;;25.50;59.40;;;26.01;39.86;95159.22;5078994;28;20445;-59
2023/08/08 09:24:56;;;;;;;6.07;1.20;;;25.50;60.10;;;26.08;39.53;95168.00;5075228;28;20450;-63
2023/08/08 09:27:25;;;;;;;3.33;1.57;;;25.50;59.50;;;26.22;39.71;95165.13;5076753;28;20469;-58
2023/08/08 09:29:52;;;;;;;1.03;0.93;;;25.60;60.00;;;26.41;39.27;95161.28;5076948;28;20448;-57
2023/08/08 09:32:19;;;;;;;1.27;1.17;;;25.80;60.00;;;26.60;39.15;95159.31;5083976;28;21094;-62
2023/08/08 09:34:47;;;;;;;1.27;1.17;;;26.00;59.30;;;26.71;38.40;95156.88;5080175;28;20461;-62
2023/08/08 09:37:15;;;;;;;2.70;1.40;;;26.10;58.50;;;26.76;38.20;95160.53;5079997;28;20901;-56
2023/08/08 09:39:42;;;;;;;1.60;1.47;;;26.20;57.90;;;26.79;38.43;95160.06;5079605;28;20449;-58
2023/08/08 09:42:11;;;;;;;1.37;1.27;;;26.20;58.50;;;26.82;38.57;95153.38;5080933;28;20478;-63
2023/08/08 09:44:40;;;;;;;1.73;1.20;;;26.30;58.50;;;26.88;38.45;95157.00;5078551;28;20904;-59
2023/08/08 09:47:07;;;;;;;2.93;1.60;;;26.30;58.00;;;26.93;38.22;95155.25;5082742;28;20552;-63
2023/08/08 09:49:36;;;;;;;2.70;1.40;;;26.30;58.10;;;27.02;38.20;95153.03;5074903;28;20446;-58
2023/08/08 09:52:04;;;;;;;2.20;2.10;;;26.40;57.70;;;27.15;38.42;95155.47;5076438;28;20968;-58
2023/08/08 09:54:31;;;;;;;3.33;1.20;;;26.50;58.30;;;27.31;38.03;95144.97;5077166;28;20448;-58
2023/08/08 09:56:59;;;;;;;2.30;1.40;;;26.70;58.20;;;27.45;37.41;95157.22;5079850;28;20584;-60
2023/08/08 09:59:26;;;;;;;2.80;1.30;;;26.80;57.60;;;27.54;36.92;95144.97;5080980;28;20449;-62
2023/08/08 10:01:55;;;;;;;1.83;1.73;;;26.90;57.20;;;27.53;37.27;95143.31;5081000;28;20489;-57
2023/08/08 10:04:22;;;;;;;6.63;1.80;;;26.90;56.80;;;27.53;37.81;95145.22;5080591;28;20453;-62
2023/08/08 10:06:50;;;;;;;6.40;1.70;;;26.90;56.90;;;27.57;37.82;95137.44;5078560;28;20472;-59
2023/08/08 10:09:17;;;;;;;9.23;2.00;;;27.00;57.00;;;27.61;37.61;95144.81;5081654;28;20449;-58
2023/08/08 10:11:44;;;;;;;1.50;1.40;;;27.00;57.00;;;27.58;36.10;95133.69;5078291;28;20473;-58
2023/08/08 10:14:14;;;;;;;1.83;1.73;;;27.00;55.30;;;27.49;37.57;95136.75;5080512;28;20532;-62
2023/08/08 10:16:43;;;;;;;2.80;1.57;;;26.90;56.80;;;27.50;36.91;95146.50;5080017;28;20465;-58
2023/08/08 10:19:11;;;;;;;1.80;1.70;;;26.90;56.00;;;27.50;37.57;95146.50;5080597;28;20449;-61
2023/08/08 10:21:42;;;;;;;1.23;1.13;;;26.90;57.00;;;27.60;37.57;95150.47;5080665;28;20462;-57